Time;durP1;ratioP1;P1;durP2;ratioP2;P2;SDS_P1;SDS_P2;PMS_P1;PMS_P2;Temp;Humidity;BMP_temperature;BMP_pressure;BME280_temperature;BME280_humidity;BME280_pressure;Samples;Min_cycle;Max_cycle;Signal;HPM_P1;HPM_P2
2021/10/11 00:01:15;;;;;;;11.77;5.95;;;;;;;;;;4756373;28;21187;-80
2021/10/11 00:03:41;;;;;;;9.32;4.30;;;;;;;;;;4757712;28;20807;-81
2021/10/11 00:06:07;;;;;;;9.27;3.90;;;;;;;;;;4750344;28;20042;-80
2021/10/11 00:08:33;;;;;;;;;;;;;;;;;;4755930;28;20632;-79
2021/10/11 00:11:00;;;;;;;8.15;2.97;;;;;;;;;;4758116;28;19922;-79
2021/10/11 00:13:28;;;;;;;9.80;3.40;;;;;;;;;;4760792;28;20141;-80
2021/10/11 00:15:54;;;;;;;8.73;3.03;;;;;;;;;;4746848;28;20039;-81
2021/10/11 00:18:21;;;;;;;7.30;2.92;;;;;;;;;;4745109;28;20042;-79
2021/10/11 00:20:47;;;;;;;9.10;2.83;;;;;;;;;;4756869;28;20026;-80
2021/10/11 00:23:15;;;;;;;7.43;2.80;;;;;;;;;;4765460;28;20052;-82
2021/10/11 00:25:41;;;;;;;7.95;2.90;;;;;;;;;;4754394;28;20084;-80
2021/10/11 00:28:08;;;;;;;9.55;3.17;;;;;;;;;;4774680;28;20102;-81
2021/10/11 00:30:34;;;;;;;7.85;3.10;;;;;;;;;;4772267;28;20699;-80
2021/10/11 00:33:01;;;;;;;9.18;3.08;;;;;;;;;;4768196;28;20050;-80
2021/10/11 00:35:28;;;;;;;9.05;2.90;;;;;;;;;;4771493;28;21199;-80
2021/10/11 00:37:54;;;;;;;10.57;3.33;;;;;;;;;;4765177;28;20034;-80
2021/10/11 00:40:20;;;;;;;;;;;;;;;;;;4769069;28;20169;-80
2021/10/11 00:42:46;;;;;;;9.23;2.80;;;;;;;;;;4771059;28;20744;-80
2021/10/11 00:45:12;;;;;;;;;;;;;;;;;;4784125;28;20019;-80
2021/10/11 00:47:38;;;;;;;7.15;2.65;;;;;;;;;;4767785;28;19933;-80
2021/10/11 00:50:05;;;;;;;9.27;2.80;;;;;;;;;;4767669;28;20046;-79
2021/10/11 00:52:31;;;;;;;9.23;2.95;;;;;;;;;;4762711;28;20122;-78
2021/10/11 00:54:57;;;;;;;;;;;;;;;;;;4752625;28;20030;-81
2021/10/11 00:57:24;;;;;;;8.13;3.10;;;;;;;;;;4747276;28;19957;-81
2021/10/11 00:59:50;;;;;;;;;;;;;;;;;;4765074;28;20069;-81
2021/10/11 01:02:16;;;;;;;6.90;2.65;;;;;;;;;;4775480;28;21319;-79
2021/10/11 01:04:42;;;;;;;;;;;;;;;;;;4770353;28;20290;-79
2021/10/11 01:07:08;;;;;;;9.35;3.00;;;;;;;;;;4779200;28;21036;-80
2021/10/11 01:09:35;;;;;;;6.85;3.00;;;;;;;;;;4779349;28;20038;-80
2021/10/11 01:12:01;;;;;;;;;;;;;;;;;;4783822;28;20035;-80
2021/10/11 01:14:28;;;;;;;8.48;3.13;;;;;;;;;;4773194;28;19922;-80
2021/10/11 01:16:55;;;;;;;8.05;3.03;;;;;;;;;;4774028;28;20042;-79
2021/10/11 01:19:21;;;;;;;9.15;3.22;;;;;;;;;;4765427;28;20053;-79
2021/10/11 01:21:47;;;;;;;6.93;2.83;;;;;;;;;;4788167;28;21392;-80
2021/10/11 01:24:14;;;;;;;;;;;;;;;;;;4788046;28;20050;-80
2021/10/11 01:26:44;;;;;;;8.10;3.40;;;;;;;;;;4777744;28;19932;-81
2021/10/11 01:29:11;;;;;;;9.82;3.22;;;;;;;;;;4761038;28;20050;-82
2021/10/11 01:31:38;;;;;;;9.10;3.40;;;;;;;;;;4782397;28;21291;-81
2021/10/11 01:34:04;;;;;;;9.50;3.35;;;;;;;;;;4782016;28;20038;-81
2021/10/11 01:36:31;;;;;;;8.10;3.20;;;;;;;;;;4779290;28;20118;-80
2021/10/11 01:38:58;;;;;;;8.80;2.78;;;;;;;;;;4779106;28;20054;-80
2021/10/11 01:41:25;;;;;;;8.27;2.80;;;;;;;;;;4770263;28;21221;-82
2021/10/11 01:43:51;;;;;;;7.45;2.78;;;;;;;;;;4778890;28;21074;-78
2021/10/11 01:46:18;;;;;;;6.97;2.75;;;;;;;;;;4790371;28;20042;-82
2021/10/11 01:48:48;;;;;;;9.98;3.30;;;;;;;;;;4779558;28;20061;-82
2021/10/11 01:51:14;;;;;;;8.60;3.13;;;;;;;;;;4776967;28;20128;-80
2021/10/11 01:53:40;;;;;;;7.15;2.83;;;;;;;;;;4773385;28;20043;-79
2021/10/11 01:56:07;;;;;;;9.65;2.95;;;;;;;;;;4775191;28;20044;-82
2021/10/11 01:58:33;;;;;;;11.38;3.10;;;;;;;;;;4770322;28;20037;-79
2021/10/11 02:01:00;;;;;;;7.43;2.40;;;;;;;;;;4776520;28;20038;-80
2021/10/11 02:03:26;;;;;;;8.98;2.85;;;;;;;;;;4771415;28;20694;-80
2021/10/11 02:05:55;;;;;;;7.15;2.83;;;;;;;;;;4766209;28;20034;-81
2021/10/11 02:08:22;;;;;;;8.48;3.13;;;;;;;;;;4766761;28;20041;-79
2021/10/11 02:10:48;;;;;;;;;;;;;;;;;;4769351;28;20039;-80
2021/10/11 02:13:14;;;;;;;7.25;2.60;;;;;;;;;;4777316;28;20664;-79
2021/10/11 02:15:40;;;;;;;;;;;;;;;;;;4770419;28;20429;-80
2021/10/11 02:18:06;;;;;;;8.27;2.90;;;;;;;;;;4776090;28;22842;-80
2021/10/11 02:20:32;;;;;;;;;;;;;;;;;;4775217;28;20095;-80
2021/10/11 02:22:58;;;;;;;6.80;2.40;;;;;;;;;;4768993;28;20794;-80
2021/10/11 02:25:24;;;;;;;;;;;;;;;;;;4772405;28;20746;-80
2021/10/11 02:27:51;;;;;;;7.63;2.60;;;;;;;;;;4767550;28;19968;-80
2021/10/11 02:30:17;;;;;;;10.07;3.42;;;;;;;;;;4775326;28;20031;-79
2021/10/11 02:32:43;;;;;;;6.72;2.40;;;;;;;;;;4769391;28;20035;-78
2021/10/11 02:35:10;;;;;;;7.55;2.50;;;;;;;;;;4771731;28;21385;-81
2021/10/11 02:37:36;;;;;;;12.15;2.78;;;;;;;;;;4775343;28;20061;-81
2021/10/11 02:40:03;;;;;;;7.80;2.53;;;;;;;;;;4771862;28;20038;-81
2021/10/11 02:42:29;;;;;;;8.15;2.75;;;;;;;;;;4771630;28;21493;-79
2021/10/11 02:44:55;;;;;;;;;;;;;;;;;;4799044;28;20030;-80
2021/10/11 02:47:21;;;;;;;7.72;3.00;;;;;;;;;;4777427;28;20024;-80
2021/10/11 02:49:47;;;;;;;;;;;;;;;;;;4837818;28;20222;-80
2021/10/11 02:52:13;;;;;;;7.13;2.30;;;;;;;;;;4773115;28;19922;-80
2021/10/11 02:54:39;;;;;;;;;;;;;;;;;;4780328;28;20046;-79
2021/10/11 02:57:06;;;;;;;7.65;2.70;;;;;;;;;;4775362;28;19917;-81
2021/10/11 02:59:32;;;;;;;;;;;;;;;;;;4758295;28;20051;-79
2021/10/11 03:01:58;;;;;;;7.75;2.58;;;;;;;;;;4760837;28;19921;-80
2021/10/11 03:04:24;;;;;;;9.48;3.40;;;;;;;;;;4778899;28;20041;-80
2021/10/11 03:06:51;;;;;;;7.95;2.65;;;;;;;;;;4783024;28;20054;-80
2021/10/11 03:09:17;;;;;;;;;;;;;;;;;;4776698;28;20929;-82
2021/10/11 03:11:43;;;;;;;7.68;3.00;;;;;;;;;;4780002;28;19960;-80
2021/10/11 03:14:09;;;;;;;;;;;;;;;;;;4782407;28;20776;-80
2021/10/11 03:16:36;;;;;;;8.23;2.83;;;;;;;;;;4775131;28;19921;-80
2021/10/11 03:19:02;;;;;;;6.80;2.80;;;;;;;;;;4775043;28;20093;-80
2021/10/11 03:21:29;;;;;;;8.20;3.10;;;;;;;;;;4781709;28;20582;-82
2021/10/11 03:23:55;;;;;;;8.13;2.83;;;;;;;;;;4782301;28;20026;-82
2021/10/11 03:26:22;;;;;;;6.80;3.00;;;;;;;;;;4784694;28;20051;-81
2021/10/11 03:28:48;;;;;;;;;;;;;;;;;;4766164;28;20533;-81
2021/10/11 03:31:14;;;;;;;8.98;2.90;;;;;;;;;;4773150;28;20012;-81
2021/10/11 03:33:40;;;;;;;;;;;;;;;;;;4769166;28;20042;-81
2021/10/11 03:36:07;;;;;;;7.25;2.80;;;;;;;;;;4773843;28;19925;-80
2021/10/11 03:38:34;;;;;;;8.05;3.15;;;;;;;;;;4769746;28;20109;-80
2021/10/11 03:41:00;;;;;;;;;;;;;;;;;;4790932;28;20633;-80
2021/10/11 03:43:26;;;;;;;7.68;2.85;;;;;;;;;;4774384;28;21380;-80
2021/10/11 03:45:55;;;;;;;7.13;2.63;;;;;;;;;;4788367;28;20771;-79
2021/10/11 03:48:21;;;;;;;8.23;3.20;;;;;;;;;;4785411;28;20164;-81
2021/10/11 03:50:48;;;;;;;7.93;2.97;;;;;;;;;;4774337;28;20019;-81
2021/10/11 03:53:14;;;;;;;;;;;;;;;;;;4767550;28;20030;-80
2021/10/11 03:55:41;;;;;;;6.97;2.53;;;;;;;;;;4766128;28;19929;-80
2021/10/11 03:58:08;;;;;;;8.52;3.35;;;;;;;;;;4767877;28;20857;-79
2021/10/11 04:00:34;;;;;;;9.95;3.72;;;;;;;;;;4779455;28;20085;-80
2021/10/11 04:03:03;;;;;;;;;;;;;;;;;;4761095;28;20038;-82
2021/10/11 04:05:29;;;;;;;9.07;4.03;;;;;;;;;;4758191;28;21201;-81
2021/10/11 04:07:59;;;;;;;;;;;;;;;;;;4761941;28;20790;-80
2021/10/11 04:10:29;;;;;;;9.43;3.63;;;;;;;;;;4768662;28;20752;-80
2021/10/11 04:13:04;;;;;;;7.20;3.30;;;;;;;;;;4769587;28;20049;-80
2021/10/11 04:15:31;;;;;;;8.18;3.10;;;;;;;;;;4762218;28;20391;-80
2021/10/11 04:18:00;;;;;;;10.32;3.67;;;;;;;;;;4778449;28;20174;-79
2021/10/11 04:20:27;;;;;;;8.35;4.05;;;;;;;;;;4767868;28;20994;-80
2021/10/11 04:22:53;;;;;;;9.30;3.67;;;;;;;;;;4772743;28;20035;-79
2021/10/11 04:25:20;;;;;;;9.38;3.60;;;;;;;;;;4758982;28;20046;-79
2021/10/11 04:27:46;;;;;;;9.95;3.70;;;;;;;;;;4771013;28;21215;-80
2021/10/11 04:30:12;;;;;;;;;;;;;;;;;;4754739;28;20042;-80
2021/10/11 04:32:39;;;;;;;8.63;3.60;;;;;;;;;;4760125;28;20068;-79
2021/10/11 04:35:05;;;;;;;;;;;;;;;;;;4746414;28;20065;-79
2021/10/11 04:37:31;;;;;;;10.02;3.67;;;;;;;;;;4762171;28;22437;-79
2021/10/11 04:39:57;;;;;;;9.80;3.67;;;;;;;;;;4771584;28;20803;-80
2021/10/11 04:42:23;;;;;;;;;;;;;;;;;;4764983;28;20149;-79
2021/10/11 04:44:50;;;;;;;10.68;4.30;;;;;;;;;;4775266;28;21450;-80
2021/10/11 04:47:16;;;;;;;8.32;3.70;;;;;;;;;;4762052;28;20762;-80
2021/10/11 04:49:42;;;;;;;;;;;;;;;;;;4771416;28;20636;-82
2021/10/11 04:52:08;;;;;;;8.65;3.90;;;;;;;;;;4766385;28;20660;-81
2021/10/11 04:54:37;;;;;;;9.75;3.65;;;;;;;;;;4773530;28;20748;-80
2021/10/11 04:57:04;;;;;;;14.48;4.30;;;;;;;;;;4769495;28;20065;-81
2021/10/11 04:59:30;;;;;;;;;;;;;;;;;;4762741;28;21121;-80
2021/10/11 05:01:56;;;;;;;8.43;3.55;;;;;;;;;;4776952;28;19949;-80
2021/10/11 05:04:22;;;;;;;;;;;;;;;;;;4781785;28;20069;-80
2021/10/11 05:06:48;;;;;;;8.27;3.78;;;;;;;;;;4767375;28;20393;-80
2021/10/11 05:09:14;;;;;;;13.60;3.70;;;;;;;;;;4796898;28;20037;-80
2021/10/11 05:11:40;;;;;;;;;;;;;;;;;;4776587;28;20043;-80
2021/10/11 05:14:07;;;;;;;12.00;3.50;;;;;;;;;;4785629;28;19922;-81
2021/10/11 05:16:35;;;;;;;;;;;;;;;;;;4759922;28;20042;-80
2021/10/11 05:19:01;;;;;;;11.52;4.03;;;;;;;;;;4764663;28;19929;-80
2021/10/11 05:21:28;;;;;;;9.63;3.70;;;;;;;;;;4785683;28;21047;-80
2021/10/11 05:23:54;;;;;;;9.18;3.72;;;;;;;;;;4763145;28;20817;-80
2021/10/11 05:26:21;;;;;;;10.55;3.92;;;;;;;;;;4785058;28;20038;-81
2021/10/11 05:28:47;;;;;;;12.23;3.65;;;;;;;;;;4787361;28;20042;-80
2021/10/11 05:31:13;;;;;;;;;;;;;;;;;;4772290;28;21537;-81
2021/10/11 05:33:42;;;;;;;8.18;3.28;;;;;;;;;;4764068;28;22291;-81
2021/10/11 05:36:09;;;;;;;12.27;3.78;;;;;;;;;;4786463;28;20034;-81
2021/10/11 05:38:35;;;;;;;;;;;;;;;;;;4796983;28;20817;-81
2021/10/11 05:41:01;;;;;;;8.32;3.45;;;;;;;;;;4768913;28;19922;-81
2021/10/11 05:43:28;;;;;;;8.95;3.50;;;;;;;;;;4781416;28;20149;-82
2021/10/11 05:45:54;;;;;;;7.78;3.10;;;;;;;;;;4771569;28;20805;-81
2021/10/11 05:48:21;;;;;;;10.27;3.63;;;;;;;;;;4792142;28;20045;-81
2021/10/11 05:50:57;;;;;;;9.13;3.40;;;;;;;;;;4784660;28;20058;-80
2021/10/11 05:53:24;;;;;;;8.45;3.38;;;;;;;;;;4779257;28;20829;-81
2021/10/11 05:55:50;;;;;;;7.25;3.08;;;;;;;;;;4747911;28;20039;-79
2021/10/11 05:58:16;;;;;;;10.25;3.25;;;;;;;;;;4777837;28;20035;-80
2021/10/11 06:00:43;;;;;;;9.38;3.28;;;;;;;;;;4773706;28;20802;-81
2021/10/11 06:03:10;;;;;;;7.78;3.42;;;;;;;;;;4759955;28;21014;-81
2021/10/11 06:05:42;;;;;;;7.82;3.33;;;;;;;;;;4766730;28;20039;-82
2021/10/11 06:08:08;;;;;;;7.97;3.50;;;;;;;;;;4782278;28;20121;-82
2021/10/11 06:10:36;;;;;;;12.15;3.50;;;;;;;;;;4788694;28;20169;-81
2021/10/11 06:13:06;;;;;;;8.57;3.55;;;;;;;;;;4782188;28;21923;-81
2021/10/11 06:15:33;;;;;;;9.07;3.35;;;;;;;;;;4792253;28;20136;-81
2021/10/11 06:17:59;;;;;;;7.60;3.50;;;;;;;;;;4762339;28;20146;-81
2021/10/11 06:20:26;;;;;;;8.70;3.75;;;;;;;;;;4787393;28;20639;-82
2021/10/11 06:22:55;;;;;;;10.20;3.95;;;;;;;;;;4796048;28;20047;-82
2021/10/11 06:25:22;;;;;;;10.18;3.50;;;;;;;;;;4765369;28;20151;-82
2021/10/11 06:27:48;;;;;;;11.23;6.45;;;;;;;;;;4778832;28;20042;-80
2021/10/11 06:30:15;;;;;;;12.15;4.82;;;;;;;;;;4788495;28;20042;-82
2021/10/11 06:32:41;;;;;;;9.38;3.70;;;;;;;;;;4779574;28;20164;-82
2021/10/11 06:35:08;;;;;;;8.35;3.67;;;;;;;;;;4778865;28;20038;-80
2021/10/11 06:37:35;;;;;;;8.35;3.60;;;;;;;;;;4782812;28;20066;-81
2021/10/11 06:40:04;;;;;;;16.33;3.90;;;;;;;;;;4782037;28;20046;-79
2021/10/11 06:42:31;;;;;;;11.65;3.83;;;;;;;;;;4773554;28;20148;-79
2021/10/11 06:45:00;;;;;;;10.27;3.45;;;;;;;;;;4770878;28;20220;-79
2021/10/11 06:47:27;;;;;;;9.18;3.58;;;;;;;;;;4780070;28;21445;-79
2021/10/11 06:49:53;;;;;;;8.90;3.83;;;;;;;;;;4791074;28;20747;-80
2021/10/11 06:52:19;;;;;;;;;;;;;;;;;;4776826;28;20735;-82
2021/10/11 06:54:45;;;;;;;9.07;3.50;;;;;;;;;;4796625;28;19929;-80
2021/10/11 06:57:13;;;;;;;9.15;3.90;;;;;;;;;;4818361;28;20042;-81
2021/10/11 06:59:42;;;;;;;8.00;3.33;;;;;;;;;;4788316;28;20097;-80
2021/10/11 07:02:09;;;;;;;8.05;3.50;;;;;;;;;;4780722;28;20546;-81
2021/10/11 07:04:35;;;;;;;8.13;3.50;;;;;;;;;;4775834;28;20046;-80
2021/10/11 07:07:03;;;;;;;9.57;4.25;;;;;;;;;;4768740;28;20507;-80
2021/10/11 07:09:29;;;;;;;9.35;4.03;;;;;;;;;;4770508;28;20133;-81
2021/10/11 07:11:55;;;;;;;9.65;3.95;;;;;;;;;;4781685;28;20086;-79
2021/10/11 07:14:22;;;;;;;;;;;;;;;;;;4759496;28;20034;-80
2021/10/11 07:16:48;;;;;;;10.40;4.70;;;;;;;;;;4765833;28;19922;-79
2021/10/11 07:19:15;;;;;;;11.00;4.45;;;;;;;;;;4748803;28;21032;-81
2021/10/11 07:21:42;;;;;;;11.82;4.50;;;;;;;;;;4783656;28;20050;-81
2021/10/11 07:24:11;;;;;;;11.25;4.32;;;;;;;;;;4761696;28;20864;-80
2021/10/11 07:26:38;;;;;;;11.88;5.00;;;;;;;;;;4755312;28;20186;-82
2021/10/11 07:29:05;;;;;;;10.55;4.65;;;;;;;;;;4764094;28;21726;-80
2021/10/11 07:31:31;;;;;;;11.65;4.60;;;;;;;;;;4763573;28;20045;-80
2021/10/11 07:33:58;;;;;;;13.10;5.20;;;;;;;;;;4775818;28;20077;-79
2021/10/11 07:36:24;;;;;;;12.68;5.18;;;;;;;;;;4753338;28;20080;-79
2021/10/11 07:38:51;;;;;;;13.88;5.53;;;;;;;;;;4768151;28;20731;-81
2021/10/11 07:41:18;;;;;;;9.98;4.80;;;;;;;;;;4772676;28;20050;-82
2021/10/11 07:43:47;;;;;;;11.43;4.57;;;;;;;;;;4756151;28;20045;-80
2021/10/11 07:46:15;;;;;;;10.93;4.97;;;;;;;;;;4776408;28;20090;-80
2021/10/11 07:48:41;;;;;;;12.15;4.80;;;;;;;;;;4786268;28;20127;-81
2021/10/11 07:51:08;;;;;;;12.60;5.13;;;;;;;;;;4777675;28;20034;-81
2021/10/11 07:53:34;;;;;;;10.73;4.90;;;;;;;;;;4788700;28;20168;-82
2021/10/11 07:56:01;;;;;;;10.75;4.50;;;;;;;;;;4790021;28;20054;-81
2021/10/11 07:58:28;;;;;;;14.00;4.50;;;;;;;;;;4767006;28;20089;-81
2021/10/11 08:00:55;;;;;;;10.35;4.05;;;;;;;;;;4769511;28;20050;-80
2021/10/11 08:03:22;;;;;;;11.07;4.10;;;;;;;;;;4767568;28;20151;-80
2021/10/11 08:05:49;;;;;;;12.68;3.97;;;;;;;;;;4763191;28;20686;-80
2021/10/11 08:08:15;;;;;;;9.20;4.00;;;;;;;;;;4760611;28;20753;-80
2021/10/11 08:10:44;;;;;;;13.27;4.13;;;;;;;;;;4762185;28;23191;-79
2021/10/11 08:13:10;;;;;;;10.60;3.75;;;;;;;;;;4762617;28;20059;-80
2021/10/11 08:15:37;;;;;;;10.73;3.92;;;;;;;;;;4761182;28;20027;-79
2021/10/11 08:18:03;;;;;;;8.85;3.60;;;;;;;;;;4758747;28;20679;-80
2021/10/11 08:23:56;;;;;;;;;;;;;;;;;;;;;
2021/10/11 08:26:26;;;;;;;8.38;3.35;;;;;;;;;;4778311;28;20039;-79
2021/10/11 08:28:56;;;;;;;10.80;3.65;;;;;;;;;;4766653;28;20141;-80
2021/10/11 08:31:27;;;;;;;9.57;3.45;;;;;;;;;;4776323;28;20053;-81
2021/10/11 08:33:54;;;;;;;9.05;2.65;;;;;;;;;;4780498;28;20057;-82
2021/10/11 08:36:24;;;;;;;7.28;2.80;;;;;;;;;;4775971;28;20031;-80
2021/10/11 08:38:50;;;;;;;7.90;3.10;;;;;;;;;;4754856;28;20037;-80
2021/10/11 08:41:16;;;;;;;8.55;3.35;;;;;;;;;;4774936;28;20042;-81
2021/10/11 08:43:44;;;;;;;7.40;2.90;;;;;;;;;;4788017;28;20046;-81
2021/10/11 08:46:10;;;;;;;9.20;2.47;;;;;;;;;;4763464;28;20031;-81
2021/10/11 08:51:33;;;;;;;8.20;3.27;;;;;;;;;;4782853;28;20156;-80
2021/10/11 08:54:03;;;;;;;7.00;2.70;;;;;;;;;;4786190;28;20034;-80
2021/10/11 08:56:29;;;;;;;8.73;3.05;;;;;;;;;;4771857;28;20042;-81
2021/10/11 08:58:56;;;;;;;8.25;2.97;;;;;;;;;;4764420;28;20090;-79
2021/10/11 09:01:24;;;;;;;9.32;3.67;;;;;;;;;;4770104;28;21165;-79
2021/10/11 09:04:07;;;;;;;9.82;4.38;;;;;;;;;;4792598;28;20034;-78
2021/10/11 09:06:37;;;;;;;9.10;3.10;;;;;;;;;;4796450;28;20053;-79
2021/10/11 09:09:10;;;;;;;7.80;2.88;;;;;;;;;;4779587;28;22485;-80
2021/10/11 09:11:37;;;;;;;7.65;2.60;;;;;;;;;;4780500;28;22908;-80
2021/10/11 09:14:10;;;;;;;10.02;2.47;;;;;;;;;;4812030;28;20047;-82
2021/10/11 09:19:57;;;;;;;8.40;2.20;;;;;;;;;;4767715;28;20175;-80
2021/10/11 09:22:34;;;;;;;7.03;2.35;;;;;;;;;;4742552;28;20047;-81
2021/10/11 09:25:00;;;;;;;8.40;2.50;;;;;;;;;;4756839;28;20757;-81
2021/10/11 09:27:29;;;;;;;5.50;2.10;;;;;;;;;;4742324;28;20138;-82
2021/10/11 09:30:13;;;;;;;6.93;2.40;;;;;;;;;;4732203;28;20040;-82
2021/10/11 09:32:39;;;;;;;6.43;2.22;;;;;;;;;;4721723;28;20792;-80
2021/10/11 09:35:09;;;;;;;6.25;2.20;;;;;;;;;;4713409;28;22196;-81
2021/10/11 09:37:39;;;;;;;5.35;1.83;;;;;;;;;;4729295;28;20985;-82
2021/10/11 09:40:09;;;;;;;6.93;2.00;;;;;;;;;;4733792;28;20075;-80
2021/10/11 09:42:36;;;;;;;6.70;1.85;;;;;;;;;;4708721;28;20046;-80
2021/10/11 09:45:04;;;;;;;6.18;1.80;;;;;;;;;;4712498;28;20039;-82
2021/10/11 09:47:52;;;;;;;6.97;2.10;;;;;;;;;;4722060;28;21578;-82
2021/10/11 09:50:18;;;;;;;7.53;2.00;;;;;;;;;;4740834;28;20048;-81
2021/10/11 09:52:52;;;;;;;6.05;1.65;;;;;;;;;;4718254;28;20039;-81
2021/10/11 09:55:18;;;;;;;6.63;1.83;;;;;;;;;;4726129;28;20051;-80
2021/10/11 09:57:47;;;;;;;5.75;1.65;;;;;;;;;;4754372;28;20039;-80
2021/10/11 10:00:28;;;;;;;5.18;1.80;;;;;;;;;;4763810;28;20042;-82
2021/10/11 10:03:13;;;;;;;4.75;1.80;;;;;;;;;;4753509;28;20042;-82
2021/10/11 10:05:47;;;;;;;5.43;1.90;;;;;;;;;;4780492;28;20049;-80
2021/10/11 10:08:27;;;;;;;7.82;1.73;;;;;;;;;;4783040;28;20923;-81
2021/10/11 10:10:54;;;;;;;3.75;1.50;;;;;;;;;;4793640;28;20390;-81
2021/10/11 10:13:25;;;;;;;5.85;1.67;;;;;;;;;;4787401;28;20038;-81
2021/10/11 10:15:55;;;;;;;6.30;1.60;;;;;;;;;;4759202;28;20042;-80
2021/10/11 10:18:38;;;;;;;7.05;2.25;;;;;;;;;;4771880;28;20038;-80
2021/10/11 10:21:04;;;;;;;6.35;1.88;;;;;;;;;;4772977;28;21674;-82
2021/10/11 10:23:32;;;;;;;4.70;1.63;;;;;;;;;;4769776;28;21514;-82
2021/10/11 10:26:00;;;;;;;4.93;1.65;;;;;;;;;;4806890;28;20494;-81
2021/10/11 10:28:54;;;;;;;5.93;1.90;;;;;;;;;;4765565;28;20116;-81
2021/10/11 10:31:30;;;;;;;4.15;1.50;;;;;;;;;;4766250;28;21747;-81
2021/10/11 10:34:01;;;;;;;7.40;2.30;;;;;;;;;;4777206;28;20662;-81
2021/10/11 10:36:31;;;;;;;6.38;1.67;;;;;;;;;;4761974;28;20165;-83
2021/10/11 10:39:02;;;;;;;7.82;1.77;;;;;;;;;;4764579;28;20261;-80
2021/10/11 10:41:32;;;;;;;4.65;1.40;;;;;;;;;;4773502;28;21749;-80
2021/10/11 10:44:09;;;;;;;5.95;1.27;;;;;;;;;;4763223;28;20038;-80
2021/10/11 10:46:35;;;;;;;7.88;2.33;;;;;;;;;;4746242;28;20042;-80
2021/10/11 10:49:02;;;;;;;6.15;1.80;;;;;;;;;;4762850;28;20050;-80
2021/10/11 10:51:28;;;;;;;5.80;1.55;;;;;;;;;;4765299;28;20730;-80
2021/10/11 10:53:56;;;;;;;5.75;1.83;;;;;;;;;;4765307;28;20126;-79
2021/10/11 10:56:24;;;;;;;5.95;1.80;;;;;;;;;;4762296;28;20053;-80
2021/10/11 10:59:00;;;;;;;5.50;1.50;;;;;;;;;;4767040;28;22534;-80
2021/10/11 11:01:27;;;;;;;3.83;1.20;;;;;;;;;;4761196;28;21670;-80
2021/10/11 11:03:53;;;;;;;7.32;3.42;;;;;;;;;;4744570;28;20069;-80
2021/10/11 11:06:32;;;;;;;5.30;1.52;;;;;;;;;;4763234;28;20038;-80
2021/10/11 11:08:59;;;;;;;5.85;1.60;;;;;;;;;;4758507;28;20057;-80
2021/10/11 11:11:27;;;;;;;5.15;1.60;;;;;;;;;;4766775;28;20031;-79
2021/10/11 11:13:57;;;;;;;6.15;1.70;;;;;;;;;;4772224;28;20042;-80
2021/10/11 11:16:31;;;;;;;4.43;1.30;;;;;;;;;;4766396;28;21038;-82
2021/10/11 11:19:00;;;;;;;6.43;1.50;;;;;;;;;;4757286;28;20177;-81
2021/10/11 11:21:27;;;;;;;9.43;2.58;;;;;;;;;;4772255;28;20901;-80
2021/10/11 11:23:53;;;;;;;7.03;2.30;;;;;;;;;;4769902;28;20045;-80
2021/10/11 11:26:19;;;;;;;5.43;1.50;;;;;;;;;;4761675;28;20046;-80
2021/10/11 11:28:46;;;;;;;4.88;1.60;;;;;;;;;;4758522;28;20054;-82
2021/10/11 11:31:13;;;;;;;4.55;1.55;;;;;;;;;;4760621;28;20134;-82
2021/10/11 11:33:43;;;;;;;5.63;1.70;;;;;;;;;;4778884;28;20766;-80
2021/10/11 11:36:10;;;;;;;5.40;1.70;;;;;;;;;;4762328;28;20124;-79
2021/10/11 11:38:38;;;;;;;7.03;1.50;;;;;;;;;;4749902;28;20046;-80
2021/10/11 11:41:05;;;;;;;5.28;2.00;;;;;;;;;;4779753;28;20874;-79
2021/10/11 11:43:33;;;;;;;6.65;2.05;;;;;;;;;;4769249;28;20037;-81
2021/10/11 11:46:00;;;;;;;5.85;1.80;;;;;;;;;;4784312;28;20685;-80
2021/10/11 11:48:35;;;;;;;6.18;1.80;;;;;;;;;;4758831;28;20669;-80
2021/10/11 11:51:07;;;;;;;6.28;2.00;;;;;;;;;;4778132;28;20764;-81
2021/10/11 11:53:34;;;;;;;6.90;2.00;;;;;;;;;;4768853;28;20049;-80
2021/10/11 11:56:07;;;;;;;5.60;1.85;;;;;;;;;;4777647;28;20038;-80
2021/10/11 11:58:35;;;;;;;5.30;1.80;;;;;;;;;;4786336;28;20034;-80
2021/10/11 12:01:15;;;;;;;7.03;1.80;;;;;;;;;;4775120;28;21438;-82
2021/10/11 12:03:49;;;;;;;6.43;2.10;;;;;;;;;;4765905;28;20065;-80
2021/10/11 12:06:16;;;;;;;7.03;1.90;;;;;;;;;;4772084;28;20165;-80
2021/10/11 12:08:44;;;;;;;4.80;1.42;;;;;;;;;;4767835;28;20185;-76
2021/10/11 12:11:10;;;;;;;5.97;1.85;;;;;;;;;;4786233;28;20034;-80
2021/10/11 12:13:40;;;;;;;4.60;1.50;;;;;;;;;;4774424;28;20256;-81
2021/10/11 12:16:08;;;;;;;6.65;1.42;;;;;;;;;;4780836;28;20774;-82
2021/10/11 12:18:44;;;;;;;4.35;1.40;;;;;;;;;;4786790;28;20041;-80
2021/10/11 12:21:24;;;;;;;4.10;1.33;;;;;;;;;;4804665;28;20049;-80
2021/10/11 12:23:51;;;;;;;4.28;1.48;;;;;;;;;;4780329;28;20043;-80
2021/10/11 12:26:21;;;;;;;5.10;1.52;;;;;;;;;;4761153;28;20039;-82
2021/10/11 12:28:52;;;;;;;4.57;1.50;;;;;;;;;;4782573;28;20051;-79
2021/10/11 12:31:23;;;;;;;4.10;1.40;;;;;;;;;;4770307;28;20742;-82
2021/10/11 12:33:50;;;;;;;6.28;1.60;;;;;;;;;;4769425;28;20039;-81
2021/10/11 12:36:20;;;;;;;2.45;1.10;;;;;;;;;;4766771;28;20063;-82
2021/10/11 12:38:51;;;;;;;5.20;1.17;;;;;;;;;;4757960;28;20938;-80
2021/10/11 12:41:18;;;;;;;4.88;1.50;;;;;;;;;;4753456;28;20047;-81
2021/10/11 12:43:58;;;;;;;5.22;1.58;;;;;;;;;;4766993;28;20113;-81
2021/10/11 12:46:26;;;;;;;4.72;1.30;;;;;;;;;;4767470;28;21150;-82
2021/10/11 12:48:52;;;;;;;4.38;1.50;;;;;;;;;;4755669;28;20084;-81
2021/10/11 12:51:35;;;;;;;7.60;1.70;;;;;;;;;;4775000;28;20074;-83
2021/10/11 12:54:32;;;;;;;5.05;1.70;;;;;;;;;;4775822;28;20064;-84
2021/10/11 12:57:01;;;;;;;5.45;1.77;;;;;;;;;;4770640;28;20123;-83
2021/10/11 12:59:28;;;;;;;4.22;1.35;;;;;;;;;;4781221;28;21088;-81
2021/10/11 13:01:56;;;;;;;3.90;1.20;;;;;;;;;;4773425;28;20047;-82
2021/10/11 13:04:25;;;;;;;6.15;1.58;;;;;;;;;;4776514;28;20160;-82
2021/10/11 13:06:55;;;;;;;4.25;1.60;;;;;;;;;;4769709;28;20794;-80
2021/10/11 13:09:22;;;;;;;3.85;1.33;;;;;;;;;;4778301;28;20034;-81
2021/10/11 13:11:48;;;;;;;3.05;1.10;;;;;;;;;;4787958;28;20722;-80
2021/10/11 13:14:15;;;;;;;4.55;1.45;;;;;;;;;;4793771;28;20078;-82
2021/10/11 13:16:52;;;;;;;3.92;1.17;;;;;;;;;;4770755;28;20140;-82
2021/10/11 13:19:18;;;;;;;4.80;1.40;;;;;;;;;;4782770;28;20039;-81
2021/10/11 13:21:45;;;;;;;4.32;1.20;;;;;;;;;;4771815;28;20177;-81
2021/10/11 13:24:11;;;;;;;3.58;1.38;;;;;;;;;;4782399;28;20034;-81
2021/10/11 13:26:38;;;;;;;4.88;1.38;;;;;;;;;;4773552;28;20049;-81
2021/10/11 13:29:19;;;;;;;4.60;1.30;;;;;;;;;;4769318;28;20054;-80
2021/10/11 13:43:09;;;;;;;3.22;1.15;;;;;;;;;;4749711;28;20071;-80
2021/10/11 14:30:06;;;;;;;3.95;1.10;;;;;;;;;;4791830;28;20049;-81
2021/10/11 15:55:42;;;;;;;3.80;1.40;;;;;;;;;;4765338;28;21524;-81
2021/10/11 15:59:48;;;;;;;3.05;1.20;;;;;;;;;;4762560;28;20864;-81
2021/10/11 16:02:35;;;;;;;3.97;1.42;;;;;;;;;;4747953;28;20192;-81
2021/10/11 16:05:03;;;;;;;5.63;1.50;;;;;;;;;;4750655;28;20057;-82
2021/10/11 16:07:29;;;;;;;4.68;1.40;;;;;;;;;;4777493;28;20885;-82
2021/10/11 16:09:56;;;;;;;3.63;1.40;;;;;;;;;;4749844;28;20168;-82
2021/10/11 16:12:22;;;;;;;5.47;1.80;;;;;;;;;;4754761;28;20613;-83
2021/10/11 16:14:49;;;;;;;6.15;1.80;;;;;;;;;;4757493;28;20029;-81
2021/10/11 16:17:15;;;;;;;5.82;1.55;;;;;;;;;;4762047;28;20637;-83
2021/10/11 16:19:42;;;;;;;4.32;1.60;;;;;;;;;;4758947;28;20035;-81
2021/10/11 16:22:08;;;;;;;4.80;1.58;;;;;;;;;;4776380;28;20041;-81
2021/10/11 16:24:35;;;;;;;4.35;1.45;;;;;;;;;;4760776;28;21397;-83
2021/10/11 16:27:01;;;;;;;4.50;1.75;;;;;;;;;;4764574;28;20122;-82
2021/10/11 16:29:27;;;;;;;5.22;1.90;;;;;;;;;;4756118;28;20628;-82
2021/10/11 16:31:54;;;;;;;5.55;1.75;;;;;;;;;;4760281;28;20122;-81
2021/10/11 16:34:25;;;;;;;6.63;1.65;;;;;;;;;;4749642;28;20169;-81
2021/10/11 16:36:52;;;;;;;5.28;1.70;;;;;;;;;;4770920;28;20066;-81
2021/10/11 16:39:18;;;;;;;4.50;1.80;;;;;;;;;;4760298;28;20034;-82
2021/10/11 16:41:45;;;;;;;6.10;1.90;;;;;;;;;;4759853;28;20157;-82
2021/10/11 16:44:12;;;;;;;7.72;2.00;;;;;;;;;;4753707;28;21435;-80
2021/10/11 16:46:39;;;;;;;5.97;1.90;;;;;;;;;;4775812;28;20047;-81
2021/10/11 16:49:06;;;;;;;6.55;2.25;;;;;;;;;;4753658;28;20126;-81
2021/10/11 16:51:33;;;;;;;7.38;2.53;;;;;;;;;;4759599;28;20202;-81
2021/10/11 16:56:35;;;;;;;6.45;1.85;;;;;;;;;;4756904;28;20684;-83
2021/10/11 16:59:02;;;;;;;7.85;2.20;;;;;;;;;;4751539;28;21430;-82
2021/10/11 17:01:29;;;;;;;7.63;2.40;;;;;;;;;;4755128;28;20042;-83
2021/10/11 17:03:57;;;;;;;7.47;2.38;;;;;;;;;;4759104;28;20039;-83
2021/10/11 17:06:26;;;;;;;8.73;2.42;;;;;;;;;;4742860;28;20038;-81
2021/10/11 17:08:52;;;;;;;32.75;4.15;;;;;;;;;;4765013;28;20038;-82
2021/10/11 17:11:22;;;;;;;7.60;2.78;;;;;;;;;;4767845;28;20031;-80
2021/10/11 17:13:48;;;;;;;8.07;3.08;;;;;;;;;;4755838;28;20034;-81
2021/10/11 17:16:16;;;;;;;8.50;2.90;;;;;;;;;;4753199;28;20045;-81
2021/10/11 17:18:42;;;;;;;7.45;2.58;;;;;;;;;;4753241;28;20054;-80
2021/10/11 17:21:09;;;;;;;13.00;4.13;;;;;;;;;;4772725;28;20859;-82
2021/10/11 17:23:35;;;;;;;8.50;3.20;;;;;;;;;;4780029;28;20034;-81
2021/10/11 17:26:02;;;;;;;9.98;3.85;;;;;;;;;;4773691;28;21809;-82
2021/10/11 17:28:29;;;;;;;10.15;3.65;;;;;;;;;;4771828;28;20100;-81
2021/10/11 17:31:10;;;;;;;11.82;3.95;;;;;;;;;;4775620;28;20043;-81